createdAt,value
2019-05-16T00:00:29.508Z,12.45
2019-05-16T00:03:01.248Z,12.44
2019-05-16T00:05:32.539Z,12.41
2019-05-16T00:08:04.127Z,12.39
2019-05-16T00:10:35.289Z,12.37
2019-05-16T00:13:08.482Z,12.38
2019-05-16T00:15:39.428Z,12.36
2019-05-16T00:18:10.707Z,12.72
2019-05-16T00:20:42.016Z,12.51
2019-05-16T00:23:13.275Z,12.45
2019-05-16T00:25:44.522Z,12.41
2019-05-16T00:28:17.971Z,12.38
2019-05-16T00:30:50.194Z,12.36
2019-05-16T00:33:21.411Z,12.33
2019-05-16T00:36:02.490Z,12.30
2019-05-16T00:38:27.743Z,12.28
2019-05-16T00:40:59.134Z,12.25
2019-05-16T00:43:30.376Z,12.61
2019-05-16T00:46:01.609Z,12.77
2019-05-16T00:48:32.994Z,12.86
2019-05-16T00:51:04.545Z,12.59
2019-05-16T00:53:38.084Z,12.49
2019-05-16T00:56:08.999Z,12.45
2019-05-16T00:58:40.230Z,12.41
2019-05-16T01:01:11.614Z,12.36
2019-05-16T01:03:42.887Z,12.33
2019-05-16T01:06:19.870Z,12.30
2019-05-16T01:08:48.800Z,12.27
2019-05-16T01:11:21.537Z,12.25
2019-05-16T01:13:52.767Z,12.23
2019-05-16T01:16:24.004Z,12.21
2019-05-16T01:18:55.143Z,12.20
2019-05-16T01:21:28.573Z,12.18
2019-05-16T01:23:59.174Z,12.17
2019-05-16T01:26:30.357Z,12.16
2019-05-16T01:29:01.597Z,12.14
2019-05-16T01:31:32.794Z,12.12
2019-05-16T01:34:05.130Z,12.12
2019-05-16T01:36:39.952Z,12.11
2019-05-16T01:39:09.389Z,12.08
2019-05-16T01:41:40.762Z,12.08
2019-05-16T01:44:11.953Z,12.08
2019-05-16T01:46:43.152Z,12.07
2019-05-16T01:49:14.324Z,12.06
2019-05-16T01:51:45.503Z,12.05
2019-05-16T01:54:18.017Z,12.04
2019-05-16T01:56:49.332Z,12.03
2019-05-16T01:59:20.707Z,12.01
2019-05-16T02:01:53.567Z,12.01
2019-05-16T02:04:24.810Z,12.00
2019-05-16T02:06:58.293Z,12.00
2019-05-16T02:09:28.852Z,11.99
2019-05-16T02:11:59.972Z,12.00
2019-05-16T02:14:31.176Z,11.99
2019-05-16T02:17:02.339Z,11.97
2019-05-16T02:19:33.549Z,11.99
2019-05-16T02:22:04.796Z,11.98
2019-05-16T02:24:38.428Z,11.97
2019-05-16T02:27:09.676Z,11.97
2019-05-16T02:29:40.914Z,11.96
2019-05-16T02:32:12.088Z,11.94
2019-05-16T02:34:43.308Z,11.93
2019-05-16T02:37:24.619Z,11.94
2019-05-16T02:39:47.382Z,11.91
2019-05-16T02:42:21.267Z,11.90
2019-05-16T02:44:51.618Z,11.89
2019-05-16T02:47:22.936Z,11.86
2019-05-16T02:49:54.306Z,11.83
2019-05-16T02:52:25.697Z,11.82
2019-05-16T02:54:56.901Z,11.80
2019-05-16T02:57:31.321Z,11.80
2019-05-16T03:00:02.441Z,11.79
2019-05-16T03:02:33.738Z,11.78
2019-05-16T03:05:04.994Z,11.78
2019-05-16T03:07:41.894Z,11.76
2019-05-16T03:10:11.071Z,11.76
2019-05-16T03:12:43.876Z,11.75
2019-05-16T03:15:15.123Z,11.73
2019-05-16T03:17:47.387Z,11.70
2019-05-16T03:20:21.219Z,11.70
2019-05-16T03:22:52.115Z,11.67
2019-05-16T03:25:23.518Z,11.65
2019-05-16T03:27:54.963Z,11.62
2019-05-16T03:30:26.225Z,11.58
2019-05-16T03:32:57.430Z,11.55
2019-05-16T03:35:33.354Z,11.53
2019-05-16T03:38:05.343Z,11.51
2019-05-16T03:40:36.311Z,11.48
2019-05-16T03:43:07.576Z,11.47
2019-05-16T03:45:41.824Z,11.46
2019-05-16T03:48:12.341Z,11.44
2019-05-16T03:50:43.568Z,11.41
2019-05-16T03:53:14.839Z,11.38
2019-05-16T03:55:46.034Z,11.37
2019-05-16T03:58:22.116Z,11.35
2019-05-16T04:00:54.592Z,11.33
2019-05-16T04:03:28.958Z,11.30
2019-05-16T04:06:01.151Z,11.30
2019-05-16T04:08:33.145Z,11.29
2019-05-16T04:11:04.341Z,11.28
2019-05-16T04:13:35.503Z,11.21
2019-05-16T04:16:06.814Z,11.19
2019-05-16T04:18:38.117Z,11.17
2019-05-16T04:21:11.754Z,11.15
2019-05-16T04:23:42.872Z,11.12
2019-05-16T04:26:14.245Z,11.10
2019-05-16T04:28:45.831Z,11.07
2019-05-16T04:31:17.166Z,11.04
2019-05-16T04:33:51.417Z,11.01
2019-05-16T04:36:21.630Z,10.99
2019-05-16T04:38:52.869Z,10.94
2019-05-16T04:41:24.108Z,10.92
2019-05-16T04:43:55.374Z,10.90
2019-05-16T04:46:26.906Z,10.88
2019-05-16T04:49:01.475Z,10.86
2019-05-16T04:51:31.321Z,10.86
2019-05-16T04:54:06.748Z,10.85
2019-05-16T04:56:35.539Z,10.81
2019-05-16T04:59:06.895Z,10.76
2019-05-16T05:01:41.081Z,10.74
2019-05-16T05:04:15.280Z,10.70
2019-05-16T05:06:44.267Z,10.69
2019-05-16T05:09:15.737Z,10.66
2019-05-16T05:11:47.142Z,10.65
2019-05-16T05:14:21.057Z,10.61
2019-05-16T05:16:51.396Z,10.58
2019-05-16T05:19:22.762Z,10.54
2019-05-16T05:21:54.097Z,10.51
2019-05-16T05:24:25.340Z,10.50
2019-05-16T05:26:56.699Z,10.48
2019-05-16T05:29:30.551Z,10.43
2019-05-16T05:32:04.379Z,10.41
2019-05-16T05:34:34.227Z,10.38
2019-05-16T05:37:05.588Z,10.37
2019-05-16T05:39:39.736Z,10.34
2019-05-16T05:42:11.115Z,10.31
2019-05-16T05:44:42.433Z,10.31
2019-05-16T05:47:13.914Z,10.30
2019-05-16T05:49:45.366Z,10.29
2019-05-16T05:52:16.667Z,10.28
2019-05-16T05:54:50.151Z,10.28
2019-05-16T05:57:21.040Z,10.28
2019-05-16T05:59:52.265Z,10.27
2019-05-16T06:02:23.501Z,10.27
2019-05-16T06:04:54.787Z,10.26
2019-05-16T06:07:26.036Z,10.28
2019-05-16T06:09:57.310Z,10.29
2019-05-16T06:12:30.322Z,10.29
2019-05-16T06:15:08.429Z,10.27
2019-05-16T06:17:35.222Z,10.27
2019-05-16T06:20:14.062Z,10.27
2019-05-16T06:22:40.509Z,10.27
2019-05-16T06:25:13.170Z,10.26
2019-05-16T06:27:44.871Z,10.24
2019-05-16T06:30:16.737Z,10.25
2019-05-16T06:32:50.158Z,10.24
2019-05-16T06:35:23.954Z,10.63
2019-05-16T06:37:54.266Z,10.41
2019-05-16T06:40:26.516Z,10.36
2019-05-16T06:43:00.230Z,10.33
2019-05-16T06:45:32.062Z,10.30
2019-05-16T06:48:03.432Z,10.30
2019-05-16T06:50:34.940Z,10.30
2019-05-16T06:53:06.192Z,10.29
2019-05-16T06:55:37.444Z,10.30
2019-05-16T06:58:10.605Z,10.29
2019-05-16T07:00:41.623Z,10.29
2019-05-16T07:03:12.862Z,10.29
2019-05-16T07:05:44.148Z,10.29
2019-05-16T07:08:15.411Z,10.28
2019-05-16T07:10:46.833Z,10.30
2019-05-16T07:13:19.655Z,10.33
2019-05-16T07:15:51.271Z,10.34
2019-05-16T07:18:22.620Z,10.36
2019-05-16T07:20:54.391Z,10.36
2019-05-16T07:23:25.981Z,10.37
2019-05-16T07:25:57.446Z,10.39
2019-05-16T07:28:30.184Z,10.41
2019-05-16T07:31:14.467Z,10.43
2019-05-16T07:33:34.644Z,10.45
2019-05-16T07:36:06.075Z,10.47
2019-05-16T07:38:39.876Z,10.48
2019-05-16T07:41:14.013Z,10.48
2019-05-16T07:43:43.594Z,10.48
2019-05-16T07:46:14.955Z,10.48
2019-05-16T07:48:46.183Z,10.49
2019-05-16T07:51:17.467Z,10.49
2019-05-16T07:53:50.465Z,10.51
2019-05-16T07:56:21.769Z,10.52
2019-05-16T07:58:53.135Z,10.53
2019-05-16T08:01:24.379Z,10.53
2019-05-16T08:03:59.855Z,10.53
2019-05-16T08:06:33.872Z,10.52
2019-05-16T08:09:07.723Z,10.52
2019-05-16T08:11:40.663Z,10.55
2019-05-16T08:14:11.337Z,10.55
2019-05-16T08:16:42.565Z,10.54
2019-05-16T08:19:13.819Z,10.56
2019-05-16T08:21:45.227Z,10.58
2019-05-16T08:24:16.505Z,10.64
2019-05-16T08:26:50.506Z,10.66
2019-05-16T08:29:22.125Z,10.68
2019-05-16T08:31:53.893Z,10.71
2019-05-16T08:34:25.359Z,10.71
2019-05-16T08:36:56.664Z,10.73
2019-05-16T08:39:30.580Z,10.75
2019-05-16T08:42:08.166Z,10.77
2019-05-16T08:44:34.036Z,10.78
2019-05-16T08:49:41.901Z,10.83
2019-05-16T08:50:05.529Z,10.82
2019-05-16T08:52:11.781Z,10.84
2019-05-16T08:54:44.141Z,10.85
2019-05-16T08:57:27.121Z,10.86
2019-05-16T09:02:27.812Z,10.88
2019-05-16T09:04:55.741Z,10.87
2019-05-16T09:07:27.083Z,10.88
2019-05-16T09:10:00.275Z,10.88
2019-05-16T09:10:15.891Z,10.86
2019-05-16T09:12:31.343Z,10.88
2019-05-16T09:15:02.760Z,10.88
2019-05-16T09:17:34.249Z,10.87
2019-05-16T09:20:07.402Z,10.89
2019-05-16T09:22:39.177Z,10.90
2019-05-16T09:25:10.704Z,10.91
2019-05-16T09:27:42.131Z,10.90
2019-05-16T09:30:16.798Z,10.91
2019-05-16T09:32:48.103Z,10.93
2019-05-16T09:35:19.587Z,10.94
2019-05-16T09:37:50.869Z,10.98
2019-05-16T09:40:22.258Z,10.99
2019-05-16T09:42:53.864Z,10.99
2019-05-16T09:45:27.241Z,11.01
2019-05-16T09:47:58.227Z,11.03
2019-05-16T09:50:29.426Z,11.06
2019-05-16T09:53:00.719Z,11.05
2019-05-16T09:55:31.983Z,11.06
2019-05-16T09:58:03.353Z,11.06
2019-05-16T10:00:37.358Z,11.05
2019-05-16T10:03:08.554Z,11.07
2019-05-16T10:05:40.109Z,11.11
2019-05-16T10:08:11.567Z,11.12
2019-05-16T10:10:43.620Z,11.14
2019-05-16T10:13:17.967Z,11.17
2019-05-16T10:15:47.931Z,11.16
2019-05-16T10:18:30.709Z,11.18
2019-05-16T10:21:01.918Z,11.20
2019-05-16T10:23:33.196Z,11.22
2019-05-16T10:26:04.439Z,11.24
2019-05-16T10:28:38.388Z,11.27
2019-05-16T10:31:08.585Z,11.28
2019-05-16T10:33:39.793Z,11.29
2019-05-16T10:36:11.165Z,11.32
2019-05-16T10:38:42.533Z,11.35
2019-05-16T10:41:13.894Z,11.35
2019-05-16T10:43:47.302Z,11.38
2019-05-16T10:46:18.099Z,11.74
2019-05-16T10:48:49.299Z,11.56
2019-05-16T10:51:23.762Z,11.52
2019-05-16T10:54:05.664Z,11.52
2019-05-16T10:56:26.487Z,11.51
2019-05-16T10:59:26.061Z,11.48
2019-05-16T11:01:31.471Z,11.82
2019-05-16T11:04:02.925Z,11.64
2019-05-16T11:06:34.235Z,11.59
2019-05-16T11:09:06.923Z,11.59
2019-05-16T11:11:38.510Z,11.93
2019-05-16T11:14:09.785Z,11.72
2019-05-16T11:16:41.065Z,11.68
2019-05-16T11:19:20.053Z,11.65
2019-05-16T11:21:46.964Z,11.63
2019-05-16T11:24:18.362Z,11.63
2019-05-16T11:26:49.802Z,11.60
2019-05-16T11:29:21.020Z,11.59
2019-05-16T11:31:53.385Z,11.56
2019-05-16T11:34:26.664Z,11.55
2019-05-16T11:36:57.789Z,11.55
2019-05-16T11:39:29.208Z,11.55
2019-05-16T11:42:00.635Z,11.55
2019-05-16T11:44:32.194Z,11.53
2019-05-16T11:47:03.441Z,11.53
2019-05-16T11:49:36.754Z,11.53
2019-05-16T11:52:07.731Z,11.52
2019-05-16T11:54:39.037Z,11.52
2019-05-16T11:57:10.276Z,11.53
2019-05-16T11:59:41.545Z,11.52
2019-05-16T12:02:12.851Z,11.53
2019-05-16T12:04:47.030Z,11.54
2019-05-16T12:07:19.106Z,11.56
2019-05-16T12:09:55.078Z,11.56
2019-05-16T12:12:23.105Z,11.57
2019-05-16T12:14:55.956Z,11.58
2019-05-16T12:17:28.051Z,11.56
2019-05-16T12:19:59.734Z,11.59
2019-05-16T12:22:31.239Z,11.59
2019-05-16T12:25:02.643Z,11.59
2019-05-16T12:27:34.410Z,11.62
2019-05-16T12:30:12.917Z,11.62
2019-05-16T12:32:40.473Z,11.63
2019-05-16T12:35:12.571Z,11.62
2019-05-16T12:37:43.801Z,11.63
2019-05-16T12:40:15.681Z,11.63
2019-05-16T12:42:47.370Z,11.62
2019-05-16T12:45:18.944Z,11.62
2019-05-16T12:47:50.288Z,11.62
2019-05-16T12:50:24.014Z,11.64
2019-05-16T12:52:56.930Z,11.67
2019-05-16T12:55:28.386Z,11.69
2019-05-16T12:58:12.777Z,11.71
2019-05-16T13:00:32.710Z,11.74
2019-05-16T13:03:04.076Z,11.77
2019-05-16T13:05:37.565Z,11.78
2019-05-16T13:08:08.626Z,11.81
2019-05-16T13:10:39.849Z,11.82
2019-05-16T13:13:11.137Z,11.84
2019-05-16T13:15:42.585Z,11.84
2019-05-16T13:18:13.917Z,11.88
2019-05-16T13:20:46.797Z,11.89
2019-05-16T13:23:18.552Z,11.92
2019-05-16T13:25:49.731Z,11.94
2019-05-16T13:28:21.053Z,11.93
2019-05-16T13:30:52.356Z,11.92
2019-05-16T13:33:23.601Z,11.93
2019-05-16T13:35:57.603Z,11.93
2019-05-16T13:38:28.206Z,11.95
2019-05-16T13:40:59.624Z,11.99
2019-05-16T13:43:30.965Z,12.36
2019-05-16T13:46:02.315Z,12.20
2019-05-16T13:48:34.231Z,12.18
2019-05-16T13:51:13.949Z,12.18
2019-05-16T13:53:38.786Z,12.18
2019-05-16T13:56:13.332Z,12.20
2019-05-16T13:58:43.019Z,12.21
2019-05-16T14:01:16.964Z,12.22
2019-05-16T14:03:48.182Z,12.21
2019-05-16T14:06:20.053Z,12.22
2019-05-16T14:08:51.377Z,12.21
2019-05-16T14:11:22.846Z,12.20
2019-05-16T14:13:56.303Z,12.22
2019-05-16T14:16:27.317Z,12.23
2019-05-16T14:18:58.643Z,12.57
2019-05-16T14:21:29.903Z,12.40
2019-05-16T14:24:01.153Z,12.70
2019-05-16T14:26:32.551Z,12.49
2019-05-16T14:29:03.889Z,12.43
2019-05-16T14:31:37.695Z,12.41
2019-05-16T14:34:08.993Z,12.39
2019-05-16T14:36:40.270Z,12.37
2019-05-16T14:39:11.623Z,12.36
2019-05-16T14:41:42.929Z,12.34
2019-05-16T14:44:17.982Z,12.33
2019-05-16T14:46:47.707Z,12.32
2019-05-16T14:49:19.515Z,12.33
2019-05-16T14:51:50.989Z,12.32
2019-05-16T14:54:22.783Z,12.34
2019-05-16T14:56:54.112Z,12.34
2019-05-16T14:59:27.866Z,12.36
2019-05-16T15:01:58.668Z,12.68
2019-05-16T15:04:30.267Z,12.86
2019-05-16T15:07:01.848Z,12.97
2019-05-16T15:09:33.445Z,12.73
2019-05-16T15:12:06.881Z,12.68
2019-05-16T15:14:38.073Z,12.63
2019-05-16T15:17:09.555Z,12.60
2019-05-16T15:19:40.874Z,12.58
2019-05-16T15:22:12.174Z,12.54
2019-05-16T15:24:43.614Z,12.53
2019-05-16T15:27:29.990Z,12.53
2019-05-16T15:30:09.981Z,12.51
2019-05-16T15:32:42.512Z,12.51
2019-05-16T15:35:22.706Z,12.51
2019-05-16T15:37:58.774Z,12.51
2019-05-16T15:40:28.323Z,12.51
2019-05-16T15:42:59.651Z,12.51
2019-05-16T15:45:43.388Z,12.51
2019-05-16T15:48:17.182Z,12.51
2019-05-16T15:50:48.392Z,12.51
2019-05-16T15:53:19.615Z,12.51
2019-05-16T15:55:51.006Z,12.51
2019-05-16T15:58:22.372Z,12.52
2019-05-16T16:00:57.616Z,12.52
2019-05-16T16:03:28.030Z,12.52
2019-05-16T16:05:59.239Z,12.52
2019-05-16T16:08:30.571Z,12.52
2019-05-16T16:11:01.820Z,12.52
2019-05-16T16:13:33.161Z,12.53
2019-05-16T16:16:09.204Z,12.53
2019-05-16T16:18:37.966Z,12.52
2019-05-16T16:21:09.413Z,12.53
2019-05-16T16:23:40.723Z,12.53
2019-05-16T16:26:12.026Z,12.53
2019-05-16T16:28:43.280Z,12.53
2019-05-16T16:31:16.700Z,12.52
2019-05-16T16:33:48.505Z,12.52
2019-05-16T16:36:19.697Z,12.53
2019-05-16T16:38:50.884Z,12.54
2019-05-16T16:41:22.129Z,12.54
2019-05-16T16:43:53.375Z,12.56
2019-05-16T16:46:26.924Z,12.58
2019-05-16T16:48:57.688Z,12.58
2019-05-16T16:51:29.117Z,12.59
2019-05-16T16:54:01.299Z,12.61
2019-05-16T16:56:32.681Z,12.59
2019-05-16T16:59:06.304Z,12.59
2019-05-16T17:01:37.346Z,12.60
2019-05-16T17:04:11.713Z,12.61
2019-05-16T17:06:43.076Z,12.61
2019-05-16T17:09:14.594Z,12.62
2019-05-16T17:11:46.547Z,12.61
2019-05-16T17:14:17.930Z,12.62
2019-05-16T17:16:49.185Z,12.63
2019-05-16T17:19:20.502Z,12.62
2019-05-16T17:22:06.310Z,12.63
2019-05-16T17:24:27.235Z,12.62
2019-05-16T17:26:59.252Z,12.62
2019-05-16T17:29:30.722Z,12.63
2019-05-16T17:32:07.115Z,12.63
2019-05-16T17:34:37.159Z,12.63
2019-05-16T17:37:09.683Z,12.63
2019-05-16T17:39:41.193Z,12.61
2019-05-16T17:42:12.606Z,12.61
2019-05-16T17:44:44.078Z,12.60
2019-05-16T17:47:17.327Z,12.61
2019-05-16T17:49:48.305Z,12.61
2019-05-16T17:52:19.556Z,12.61
2019-05-16T17:54:53.258Z,12.61
2019-05-16T17:57:23.756Z,12.61
2019-05-16T17:59:57.252Z,12.59
2019-05-16T18:02:28.036Z,12.60
2019-05-16T18:04:59.645Z,12.60
2019-05-16T18:07:31.129Z,12.60
2019-05-16T18:10:07.492Z,12.59
2019-05-16T18:12:41.021Z,12.58
2019-05-16T18:15:14.725Z,12.59
2019-05-16T18:17:47.286Z,12.58
2019-05-16T18:20:22.020Z,12.60
2019-05-16T18:22:51.983Z,12.60
2019-05-16T18:25:26.767Z,12.59
2019-05-16T18:27:57.340Z,12.59
2019-05-16T18:30:28.565Z,12.59
2019-05-16T18:32:59.938Z,12.57
2019-05-16T18:35:31.295Z,12.58
2019-05-16T18:38:02.712Z,12.58
2019-05-16T18:40:36.471Z,12.58
2019-05-16T18:43:08.216Z,12.60
2019-05-16T18:45:39.826Z,12.60
2019-05-16T18:48:12.117Z,12.60
2019-05-16T18:50:43.305Z,12.60
2019-05-16T18:53:17.648Z,12.61
2019-05-16T18:55:48.756Z,12.60
2019-05-16T18:58:20.124Z,12.61
2019-05-16T19:00:51.288Z,12.61
2019-05-16T19:03:22.696Z,12.61
2019-05-16T19:05:57.243Z,12.61
2019-05-16T19:08:27.888Z,12.61
2019-05-16T19:11:00.082Z,12.60
2019-05-16T19:13:32.647Z,12.61
2019-05-16T19:16:06.310Z,12.59
2019-05-16T19:18:37.322Z,12.58
2019-05-16T19:21:09.614Z,12.58
2019-05-16T19:23:40.910Z,12.58
2019-05-16T19:26:13.370Z,12.57
2019-05-16T19:28:49.024Z,12.59
2019-05-16T19:31:22.365Z,12.60
2019-05-16T19:33:56.543Z,12.61
2019-05-16T19:36:27.326Z,12.61
2019-05-16T19:38:59.268Z,12.61
2019-05-16T19:41:31.491Z,12.63
2019-05-16T19:44:02.970Z,12.62
2019-05-16T19:46:34.497Z,12.59
2019-05-16T19:49:06.461Z,12.60
2019-05-16T19:51:39.053Z,12.60
2019-05-16T19:54:10.434Z,12.59
2019-05-16T19:56:41.813Z,12.60
2019-05-16T19:59:13.104Z,12.60
2019-05-16T20:01:46.377Z,12.60
2019-05-16T20:04:18.496Z,12.60
2019-05-16T20:06:50.245Z,12.60
2019-05-16T20:09:21.756Z,12.62
2019-05-16T20:11:53.649Z,12.61
2019-05-16T20:14:27.201Z,12.61
2019-05-16T20:16:58.408Z,12.61
2019-05-16T20:19:29.723Z,12.60
2019-05-16T20:22:00.921Z,12.60
2019-05-16T20:24:32.295Z,12.60
2019-05-16T20:27:07.863Z,12.61
2019-05-16T20:29:38.442Z,12.59
2019-05-16T20:32:11.461Z,12.59
2019-05-16T20:34:42.720Z,12.59
2019-05-16T20:37:14.032Z,12.59
2019-05-16T20:39:46.598Z,12.58
2019-05-16T20:42:18.087Z,12.58
2019-05-16T20:44:49.735Z,12.57
2019-05-16T20:47:21.499Z,12.56
2019-05-16T20:49:52.944Z,12.56
2019-05-16T20:52:26.762Z,12.56
2019-05-16T20:54:57.935Z,12.54
2019-05-16T20:57:29.170Z,12.54
2019-05-16T21:00:00.403Z,12.53
2019-05-16T21:02:31.844Z,12.52
2019-05-16T21:05:03.028Z,12.53
2019-05-16T21:07:34.343Z,12.52
2019-05-16T21:10:08.044Z,12.53
2019-05-16T21:12:40.507Z,12.53
2019-05-16T21:15:11.978Z,12.54
2019-05-16T21:17:43.188Z,12.53
2019-05-16T21:20:14.428Z,12.53
2019-05-16T21:22:47.132Z,12.54
2019-05-16T21:25:18.932Z,12.53
2019-05-16T21:27:50.287Z,12.53
2019-05-16T21:30:21.552Z,12.53
2019-05-16T21:32:52.922Z,12.53
2019-05-16T21:35:26.820Z,12.52
2019-05-16T21:37:57.205Z,12.53
2019-05-16T21:40:31.453Z,12.53
2019-05-16T21:43:02.740Z,12.53
2019-05-16T21:45:33.970Z,12.52
2019-05-16T21:48:07.378Z,12.52
2019-05-16T21:50:38.376Z,12.52
2019-05-16T21:53:09.716Z,12.51
2019-05-16T21:55:41.235Z,12.52
2019-05-16T21:58:12.591Z,12.51
2019-05-16T22:00:47.427Z,12.51
2019-05-16T22:03:19.082Z,12.51
2019-05-16T22:05:50.359Z,12.52
2019-05-16T22:08:21.540Z,12.51
2019-05-16T22:10:52.804Z,12.51
2019-05-16T22:13:26.153Z,12.51
2019-05-16T22:15:57.492Z,12.50
2019-05-16T22:18:29.859Z,12.49
2019-05-16T22:21:01.059Z,12.49
2019-05-16T22:23:32.243Z,12.49
2019-05-16T22:26:03.507Z,12.49
2019-05-16T22:28:37.231Z,12.50
2019-05-16T22:31:07.783Z,12.50
2019-05-16T22:33:39.082Z,12.50
2019-05-16T22:36:10.564Z,12.50
2019-05-16T22:38:42.072Z,12.49
2019-05-16T22:41:13.405Z,12.48
2019-05-16T22:43:46.685Z,12.47
2019-05-16T22:46:17.936Z,12.48
2019-05-16T22:48:49.272Z,12.47
2019-05-16T22:51:20.398Z,12.47
2019-05-16T22:53:51.805Z,12.46
2019-05-16T22:56:23.035Z,12.47
2019-05-16T22:58:56.344Z,12.46
2019-05-16T23:01:27.320Z,12.46
2019-05-16T23:03:58.668Z,12.45
2019-05-16T23:06:29.906Z,12.45
2019-05-16T23:09:01.122Z,12.45
2019-05-16T23:11:32.894Z,12.45
2019-05-16T23:14:06.298Z,12.45
2019-05-16T23:16:37.649Z,12.44
2019-05-16T23:19:08.860Z,12.45
2019-05-16T23:21:40.123Z,12.44
2019-05-16T23:24:11.389Z,12.44
2019-05-16T23:26:42.784Z,12.44
2019-05-16T23:29:16.722Z,12.44
2019-05-16T23:31:47.354Z,12.44
2019-05-16T23:34:18.973Z,12.44
2019-05-16T23:36:50.072Z,12.41
2019-05-16T23:39:21.361Z,12.41
2019-05-16T23:41:52.487Z,12.40
2019-05-16T23:44:23.711Z,12.41
2019-05-16T23:46:56.343Z,12.39
2019-05-16T23:49:28.749Z,12.37
2019-05-16T23:52:00.096Z,12.35
2019-05-16T23:54:31.388Z,12.36
2019-05-16T23:57:02.637Z,12.34
2019-05-16T23:59:36.807Z,12.33
